createdAt,value
2022-08-05T00:00:31.808Z,22.01
2022-08-05T00:01:36.125Z,22.02
2022-08-05T00:02:31.988Z,22.02
2022-08-05T00:03:32.024Z,22.04
2022-08-05T00:04:32.126Z,22.06
2022-08-05T00:06:05.341Z,22.09
2022-08-05T00:06:36.050Z,22.15
2022-08-05T00:08:00.158Z,22.15
2022-08-05T00:08:35.506Z,22.17
2022-08-05T00:09:32.545Z,22.15
2022-08-05T00:10:32.660Z,22.15
2022-08-05T00:11:35.085Z,22.14
2022-08-05T00:12:32.834Z,22.14
2022-08-05T00:13:39.354Z,22.14
2022-08-05T00:14:33.005Z,22.14
2022-08-05T00:15:58.023Z,22.15
2022-08-05T00:16:35.711Z,22.15
2022-08-05T00:17:33.488Z,22.14
2022-08-05T00:18:33.335Z,22.14
2022-08-05T00:19:44.053Z,22.12
2022-08-05T00:20:33.529Z,22.12
2022-08-05T00:21:35.769Z,22.11
2022-08-05T00:22:33.650Z,22.11
2022-08-05T00:23:45.745Z,22.09
2022-08-05T00:24:33.827Z,22.09
2022-08-05T00:25:45.503Z,22.06
2022-08-05T00:26:34.010Z,22.05
2022-08-05T00:27:36.222Z,22.05
2022-08-05T00:28:34.155Z,22.04
2022-08-05T00:29:38.131Z,22.04
2022-08-05T00:30:34.345Z,22.02
2022-08-05T00:31:54.035Z,22.02
2022-08-05T00:32:34.473Z,21.99
2022-08-05T00:34:54.889Z,21.96
2022-08-05T00:35:10.391Z,21.96
2022-08-05T00:35:34.720Z,21.94
2022-08-05T00:37:08.986Z,21.94
2022-08-05T00:37:50.370Z,21.91
2022-08-05T00:38:35.008Z,21.93
2022-08-05T00:39:41.371Z,21.90
2022-08-05T00:40:35.195Z,21.90
2022-08-05T00:41:51.700Z,21.91
2022-08-05T00:42:35.362Z,21.91
2022-08-05T00:43:46.711Z,21.89
2022-08-05T00:44:35.521Z,21.89
2022-08-05T00:45:38.412Z,21.89
2022-08-05T00:46:42.586Z,21.89
2022-08-05T00:47:52.939Z,21.86
2022-08-05T00:48:35.838Z,21.86
2022-08-05T00:49:44.639Z,21.85
2022-08-05T00:50:36.002Z,21.85
2022-08-05T00:51:50.714Z,21.82
2022-08-05T00:52:36.157Z,21.81
2022-08-05T00:54:00.520Z,21.82
2022-08-05T00:54:36.333Z,21.82
2022-08-05T00:55:43.690Z,21.82
2022-08-05T00:56:36.513Z,21.81
2022-08-05T00:57:55.409Z,21.79
2022-08-05T00:58:36.955Z,21.79
2022-08-05T00:59:44.620Z,21.77
2022-08-05T01:00:36.917Z,21.75
2022-08-05T01:01:42.762Z,21.70
2022-08-05T01:02:37.023Z,21.66
2022-08-05T01:03:37.095Z,21.66
2022-08-05T01:04:37.185Z,21.68
2022-08-05T01:05:37.293Z,21.68
2022-08-05T01:06:37.336Z,21.68
2022-08-05T01:07:37.415Z,21.68
2022-08-05T01:08:42.853Z,21.66
2022-08-05T01:09:37.568Z,21.66
2022-08-05T01:10:37.670Z,21.66
2022-08-05T01:11:37.783Z,21.68
2022-08-05T01:12:37.782Z,21.64
2022-08-05T01:13:57.503Z,21.64
2022-08-05T01:14:37.947Z,21.64
2022-08-05T01:15:38.054Z,21.58
2022-08-05T01:16:38.111Z,21.53
2022-08-05T01:17:40.189Z,21.51
2022-08-05T01:18:38.267Z,21.48
2022-08-05T01:20:01.854Z,21.46
2022-08-05T01:20:38.481Z,21.45
2022-08-05T01:21:38.631Z,21.37
2022-08-05T01:22:38.618Z,21.30
2022-08-05T01:23:38.730Z,21.22
2022-08-05T01:24:38.793Z,21.22
2022-08-05T01:25:39.625Z,21.16
2022-08-05T01:26:38.931Z,21.21
2022-08-05T01:27:50.526Z,21.18
2022-08-05T01:28:39.535Z,21.18
2022-08-05T01:29:39.193Z,21.22
2022-08-05T01:30:39.272Z,21.18
2022-08-05T01:31:44.621Z,21.16
2022-08-05T01:32:39.430Z,21.18
2022-08-05T01:33:39.513Z,21.18
2022-08-05T01:34:39.591Z,21.21
2022-08-05T01:35:50.607Z,21.19
2022-08-05T01:36:42.316Z,21.15
2022-08-05T01:37:44.372Z,21.13
2022-08-05T01:38:39.934Z,21.13
2022-08-05T01:39:47.621Z,21.15
2022-08-05T01:40:41.983Z,21.11
2022-08-05T01:41:40.208Z,21.05
2022-08-05T01:42:40.778Z,21.00
2022-08-05T01:43:40.382Z,20.96
2022-08-05T01:44:40.446Z,20.97
2022-08-05T01:45:42.852Z,20.98
2022-08-05T01:46:42.599Z,20.98
2022-08-05T01:47:43.192Z,21.01
2022-08-05T01:48:40.764Z,20.98
2022-08-05T01:50:00.344Z,20.97
2022-08-05T01:50:40.947Z,20.94
2022-08-05T01:51:41.061Z,20.91
2022-08-05T01:52:41.116Z,20.88
2022-08-05T01:53:57.326Z,20.87
2022-08-05T01:54:45.928Z,20.83
2022-08-05T01:55:41.394Z,20.81
2022-08-05T01:58:11.869Z,20.79
2022-08-05T01:58:40.300Z,20.76
2022-08-05T01:58:45.729Z,20.73
2022-08-05T01:59:41.716Z,20.69
2022-08-05T02:00:41.801Z,20.69
2022-08-05T02:01:41.944Z,20.64
2022-08-05T02:02:46.499Z,20.58
2022-08-05T02:03:42.043Z,20.57
2022-08-05T02:04:42.116Z,20.58
2022-08-05T02:05:42.660Z,20.57
2022-08-05T02:06:42.279Z,20.57
2022-08-05T02:07:42.334Z,20.60
2022-08-05T02:08:54.937Z,20.56
2022-08-05T02:09:42.514Z,20.57
2022-08-05T02:10:42.574Z,20.57
2022-08-05T02:11:48.028Z,20.56
2022-08-05T02:12:42.752Z,20.57
2022-08-05T02:13:53.834Z,20.53
2022-08-05T02:14:43.250Z,20.51
2022-08-05T02:15:43.004Z,20.48
2022-08-05T02:16:44.057Z,20.38
2022-08-05T02:18:28.746Z,20.37
2022-08-05T02:18:43.252Z,20.38
2022-08-05T02:19:47.668Z,20.37
2022-08-05T02:20:43.398Z,20.35
2022-08-05T02:21:46.806Z,20.34
2022-08-05T02:22:43.542Z,20.26
2022-08-05T02:23:43.623Z,20.26
2022-08-05T02:24:43.694Z,20.26
2022-08-05T02:25:50.066Z,20.22
2022-08-05T02:26:54.051Z,20.20
2022-08-05T02:27:58.345Z,20.19
2022-08-05T02:28:45.817Z,20.23
2022-08-05T02:29:59.966Z,20.23
2022-08-05T02:30:51.649Z,20.19
2022-08-05T02:31:44.329Z,20.22
2022-08-05T02:32:44.388Z,20.19
2022-08-05T02:33:44.479Z,20.20
2022-08-05T02:34:44.561Z,20.17
2022-08-05T02:35:57.527Z,20.22
2022-08-05T02:36:44.770Z,20.22
2022-08-05T02:37:47.814Z,20.23
2022-08-05T02:38:44.914Z,20.22
2022-08-05T02:39:47.674Z,20.17
2022-08-05T02:40:45.027Z,20.15
2022-08-05T02:42:00.457Z,20.13
2022-08-05T02:42:45.187Z,20.12
2022-08-05T02:44:05.998Z,20.10
2022-08-05T02:44:45.377Z,20.05
2022-08-05T02:45:52.164Z,20.08
2022-08-05T02:46:58.312Z,20.05
2022-08-05T02:48:06.480Z,20.07
2022-08-05T02:48:45.712Z,20.13
2022-08-05T02:49:45.792Z,20.15
2022-08-05T02:50:45.873Z,20.17
2022-08-05T02:52:03.393Z,20.20
2022-08-05T02:52:46.036Z,20.22
2022-08-05T02:53:46.110Z,20.23
2022-08-05T02:54:50.713Z,20.25
2022-08-05T02:55:54.629Z,20.26
2022-08-05T02:56:46.355Z,20.33
2022-08-05T02:58:10.505Z,20.35
2022-08-05T02:58:51.205Z,20.41
2022-08-05T02:59:48.101Z,20.44
2022-08-05T03:00:46.640Z,20.51
2022-08-05T03:01:46.828Z,20.53
2022-08-05T03:02:46.825Z,20.53
2022-08-05T03:04:02.921Z,20.53
2022-08-05T03:04:46.977Z,20.53
2022-08-05T03:06:56.160Z,20.54
2022-08-05T03:07:03.570Z,20.56
2022-08-05T03:08:04.620Z,20.56
2022-08-05T03:08:47.290Z,20.58
2022-08-05T03:09:51.431Z,20.58
2022-08-05T03:11:53.096Z,20.57
2022-08-05T03:12:00.371Z,20.56
2022-08-05T03:12:47.602Z,20.51
2022-08-05T03:13:52.120Z,20.51
2022-08-05T03:14:48.170Z,20.54
2022-08-05T03:15:47.815Z,20.56
2022-08-05T03:16:47.868Z,20.58
2022-08-05T03:17:47.971Z,20.57
2022-08-05T03:18:48.033Z,20.57
2022-08-05T03:19:48.115Z,20.57
2022-08-05T03:20:48.635Z,20.58
2022-08-05T03:21:49.283Z,20.58
2022-08-05T03:22:50.009Z,20.58
2022-08-05T03:23:48.437Z,20.57
2022-08-05T03:24:50.759Z,20.57
2022-08-05T03:26:30.164Z,20.56
2022-08-05T03:26:49.371Z,20.53
2022-08-05T03:28:00.255Z,20.46
2022-08-05T03:28:48.817Z,20.40
2022-08-05T03:30:07.660Z,20.35
2022-08-05T03:30:48.949Z,20.31
2022-08-05T03:31:56.590Z,20.26
2022-08-05T03:32:49.112Z,20.26
2022-08-05T03:33:52.811Z,20.23
2022-08-05T03:34:50.986Z,20.20
2022-08-05T03:35:49.868Z,20.22
2022-08-05T03:36:49.393Z,20.22
2022-08-05T03:37:49.486Z,20.25
2022-08-05T03:38:53.214Z,20.25
2022-08-05T03:39:59.187Z,20.25
2022-08-05T03:40:49.709Z,20.27
2022-08-05T03:41:49.759Z,20.31
2022-08-05T03:42:52.052Z,20.34
2022-08-05T03:44:09.534Z,20.33
2022-08-05T03:44:50.037Z,20.34
2022-08-05T03:45:58.339Z,20.33
2022-08-05T03:46:50.212Z,20.34
2022-08-05T03:47:50.299Z,20.38
2022-08-05T03:48:50.337Z,20.38
2022-08-05T03:49:51.425Z,20.26
2022-08-05T03:50:50.495Z,20.13
2022-08-05T03:52:38.381Z,20.07
2022-08-05T03:56:01.184Z,20.05
2022-08-05T03:56:18.055Z,20.10
2022-08-05T03:56:35.789Z,20.15
2022-08-05T03:57:42.388Z,20.19
2022-08-05T03:58:27.133Z,20.22
2022-08-05T03:59:24.611Z,20.20
2022-08-05T04:00:24.111Z,20.17
2022-08-05T04:01:24.148Z,20.19
2022-08-05T04:02:38.425Z,20.20
2022-08-05T04:03:28.509Z,20.25
2022-08-05T04:04:26.503Z,20.27
2022-08-05T04:05:24.389Z,20.33
2022-08-05T04:06:24.467Z,20.34
2022-08-05T04:07:24.895Z,20.37
2022-08-05T04:08:34.809Z,20.22
2022-08-05T04:09:26.422Z,20.10
2022-08-05T04:10:24.812Z,20.05
2022-08-05T04:11:24.877Z,19.94
2022-08-05T04:12:25.003Z,19.92
2022-08-05T04:13:25.031Z,19.90
2022-08-05T04:14:30.404Z,19.97
2022-08-05T04:15:25.201Z,19.97
2022-08-05T04:16:32.441Z,19.98
2022-08-05T04:17:25.641Z,20.02
2022-08-05T04:18:25.712Z,20.07
2022-08-05T04:19:25.475Z,20.10
2022-08-05T04:20:25.589Z,20.12
2022-08-05T04:22:08.671Z,20.13
2022-08-05T04:22:26.596Z,20.15
2022-08-05T04:23:58.388Z,20.13
2022-08-05T04:24:25.935Z,20.10
2022-08-05T04:25:56.577Z,19.97
2022-08-05T04:26:26.087Z,19.58
2022-08-05T04:27:33.316Z,19.46
2022-08-05T04:28:30.562Z,19.35
2022-08-05T04:29:27.096Z,19.35
2022-08-05T04:30:26.704Z,19.38
2022-08-05T04:31:27.702Z,19.38
2022-08-05T04:32:33.294Z,19.40
2022-08-05T04:33:54.669Z,19.43
2022-08-05T04:34:32.399Z,19.53
2022-08-05T04:35:26.865Z,19.50
2022-08-05T04:36:45.510Z,19.52
2022-08-05T04:38:00.672Z,19.57
2022-08-05T04:38:39.849Z,19.61
2022-08-05T04:39:27.706Z,19.62
2022-08-05T04:40:27.253Z,19.70
2022-08-05T04:41:36.641Z,19.72
2022-08-05T04:42:27.397Z,19.70
2022-08-05T04:43:27.465Z,19.57
2022-08-05T04:44:30.275Z,19.50
2022-08-05T04:45:31.378Z,19.49
2022-08-05T04:46:28.680Z,19.50
2022-08-05T04:47:27.826Z,19.55
2022-08-05T04:48:28.462Z,19.58
2022-08-05T04:50:01.353Z,19.62
2022-08-05T04:50:37.386Z,19.67
2022-08-05T04:51:30.301Z,19.68
2022-08-05T04:52:28.420Z,19.70
2022-08-05T04:53:28.288Z,19.72
2022-08-05T04:54:28.375Z,19.76
2022-08-05T04:55:49.789Z,19.79
2022-08-05T04:56:37.279Z,19.78
2022-08-05T04:57:29.619Z,19.76
2022-08-05T04:58:28.706Z,19.79
2022-08-05T04:59:38.891Z,19.75
2022-08-05T05:00:28.850Z,19.75
2022-08-05T05:02:05.574Z,19.80
2022-08-05T05:02:37.540Z,19.89
2022-08-05T05:03:29.046Z,19.90
2022-08-05T05:04:29.131Z,19.90
2022-08-05T05:05:29.480Z,19.92
2022-08-05T05:06:36.100Z,19.89
2022-08-05T05:07:32.281Z,19.89
2022-08-05T05:08:30.445Z,19.89
2022-08-05T05:09:29.531Z,19.92
2022-08-05T05:10:29.877Z,19.97
2022-08-05T05:11:41.403Z,19.97
2022-08-05T05:12:29.790Z,19.98
2022-08-05T05:13:32.357Z,19.92
2022-08-05T05:14:31.844Z,19.92
2022-08-05T05:15:56.819Z,19.98
2022-08-05T05:16:30.388Z,20.00
2022-08-05T05:17:56.694Z,20.00
2022-08-05T05:18:33.326Z,20.01
2022-08-05T05:19:36.933Z,19.95
2022-08-05T05:20:30.458Z,19.97
2022-08-05T05:21:30.462Z,19.98
2022-08-05T05:22:30.565Z,20.00
2022-08-05T05:23:39.023Z,19.98
2022-08-05T05:24:32.776Z,19.95
2022-08-05T05:25:40.246Z,19.94
2022-08-05T05:26:32.945Z,19.95
2022-08-05T05:27:44.309Z,19.97
2022-08-05T05:28:31.077Z,19.94
2022-08-05T05:30:03.519Z,19.95
2022-08-05T05:30:33.354Z,19.98
2022-08-05T05:32:12.412Z,20.02
2022-08-05T05:33:16.918Z,20.05
2022-08-05T05:34:10.318Z,20.05
2022-08-05T05:35:10.373Z,20.05
2022-08-05T05:36:10.471Z,20.10
2022-08-05T05:37:10.535Z,20.10
2022-08-05T05:38:13.451Z,20.12
2022-08-05T05:39:10.685Z,20.12
2022-08-05T05:40:10.764Z,20.12
2022-08-05T05:41:10.864Z,20.13
2022-08-05T05:42:10.929Z,20.13
2022-08-05T05:43:11.010Z,20.07
2022-08-05T05:44:35.761Z,20.07
2022-08-05T05:45:11.162Z,20.10
2022-08-05T05:46:15.834Z,20.13
2022-08-05T05:47:21.362Z,20.15
2022-08-05T05:48:11.385Z,20.16
2022-08-05T05:49:22.345Z,20.17
2022-08-05T05:50:11.519Z,20.20
2022-08-05T05:51:15.061Z,20.20
2022-08-05T05:52:26.373Z,20.22
2022-08-05T05:53:22.168Z,20.30
2022-08-05T05:54:11.833Z,20.30
2022-08-05T05:55:13.359Z,20.30
2022-08-05T05:56:11.990Z,20.26
2022-08-05T05:57:24.265Z,20.31
2022-08-05T05:58:12.108Z,20.34
2022-08-05T05:59:12.167Z,20.38
2022-08-05T06:00:12.259Z,20.40
2022-08-05T06:01:15.231Z,20.42
2022-08-05T06:02:12.410Z,20.44
2022-08-05T06:03:40.131Z,20.51
2022-08-05T06:04:13.072Z,20.58
2022-08-05T06:05:16.643Z,20.69
2022-08-05T06:06:12.837Z,20.73
2022-08-05T06:07:12.763Z,20.79
2022-08-05T06:08:12.867Z,20.81
2022-08-05T06:09:17.513Z,20.91
2022-08-05T06:10:13.034Z,21.06
2022-08-05T06:11:13.445Z,21.16
2022-08-05T06:12:13.205Z,21.21
2022-08-05T06:13:13.292Z,21.19
2022-08-05T06:14:13.375Z,21.22
2022-08-05T06:15:23.610Z,21.26
2022-08-05T06:16:28.884Z,21.24
2022-08-05T06:17:22.346Z,21.28
2022-08-05T06:18:13.716Z,21.40
2022-08-05T06:19:13.782Z,21.45
2022-08-05T06:20:18.911Z,21.43
2022-08-05T06:21:18.460Z,21.45
2022-08-05T06:22:14.016Z,21.46
2022-08-05T06:23:14.081Z,21.48
2022-08-05T06:24:14.722Z,21.48
2022-08-05T06:25:59.279Z,21.51
2022-08-05T06:26:20.710Z,21.48
2022-08-05T06:28:08.820Z,21.46
2022-08-05T06:28:21.049Z,21.45
2022-08-05T06:29:23.667Z,21.43
2022-08-05T06:30:17.653Z,21.45
2022-08-05T06:31:18.035Z,21.46
2022-08-05T06:32:25.465Z,21.48
2022-08-05T06:33:19.080Z,21.49
2022-08-05T06:34:14.946Z,21.42
2022-08-05T06:35:21.791Z,21.31
2022-08-05T06:36:15.122Z,21.24
2022-08-05T06:37:15.163Z,21.22
2022-08-05T06:38:15.266Z,21.21
2022-08-05T06:39:15.381Z,21.22
2022-08-05T06:40:18.473Z,21.18
2022-08-05T06:41:15.500Z,21.13
2022-08-05T06:42:15.547Z,21.08
2022-08-05T06:43:57.440Z,21.00
2022-08-05T06:44:15.727Z,20.97
2022-08-05T06:45:20.664Z,20.96
2022-08-05T06:46:15.904Z,21.00
2022-08-05T06:47:29.982Z,21.03
2022-08-05T06:48:53.712Z,21.05
2022-08-05T06:49:16.092Z,21.03
2022-08-05T06:50:17.238Z,21.00
2022-08-05T06:51:25.232Z,21.05
2022-08-05T06:52:37.052Z,21.05
2022-08-05T06:53:22.446Z,21.08
2022-08-05T06:54:19.014Z,21.08
2022-08-05T06:55:16.547Z,21.08
2022-08-05T06:56:26.558Z,21.05
2022-08-05T06:58:02.557Z,21.03
2022-08-05T06:58:20.177Z,21.03
2022-08-05T06:59:16.875Z,21.03
2022-08-05T07:00:22.170Z,21.01
2022-08-05T07:01:20.853Z,21.03
2022-08-05T07:02:17.119Z,21.05
2022-08-05T07:03:17.217Z,21.06
2022-08-05T07:04:19.249Z,21.05
2022-08-05T07:05:19.578Z,21.06
2022-08-05T07:06:17.451Z,21.06
2022-08-05T07:07:35.591Z,21.06
2022-08-05T07:08:17.595Z,21.09
2022-08-05T07:09:17.666Z,21.05
2022-08-05T07:10:17.734Z,21.05
2022-08-05T07:11:17.836Z,21.06
2022-08-05T07:12:17.890Z,21.09
2022-08-05T07:13:17.967Z,21.12
2022-08-05T07:14:29.029Z,21.16
2022-08-05T07:15:34.620Z,21.18
2022-08-05T07:17:55.950Z,21.19
2022-08-05T07:18:09.338Z,21.19
2022-08-05T07:18:28.910Z,21.18
2022-08-05T07:19:53.804Z,21.16
2022-08-05T07:20:38.697Z,21.19
2022-08-05T07:21:25.972Z,21.16
2022-08-05T07:22:18.713Z,21.13
2022-08-05T07:23:25.916Z,21.15
2022-08-05T07:24:18.878Z,21.15
2022-08-05T07:25:55.464Z,21.16
2022-08-05T07:26:22.703Z,21.15
2022-08-05T07:27:19.173Z,21.16
2022-08-05T07:28:19.180Z,21.18
2022-08-05T07:29:19.280Z,21.19
2022-08-05T07:30:31.869Z,21.21
2022-08-05T07:31:19.456Z,21.21
2022-08-05T07:32:26.116Z,21.22
2022-08-05T07:33:19.585Z,21.22
2022-08-05T07:34:21.158Z,21.26
2022-08-05T07:36:04.716Z,21.27
2022-08-05T07:36:24.954Z,21.34
2022-08-05T07:37:19.915Z,21.40
2022-08-05T07:38:32.957Z,21.45
2022-08-05T07:39:50.342Z,21.46
2022-08-05T07:40:32.847Z,21.46
2022-08-05T07:42:09.499Z,21.51
2022-08-05T07:42:33.579Z,21.55
2022-08-05T07:43:21.153Z,21.58
2022-08-05T07:44:20.435Z,21.61
2022-08-05T07:45:57.852Z,21.66
2022-08-05T07:46:25.182Z,21.68
2022-08-05T07:47:20.764Z,21.63
2022-08-05T07:49:02.709Z,21.59
2022-08-05T07:49:20.823Z,21.58
2022-08-05T07:50:23.700Z,21.52
2022-08-05T07:51:23.814Z,21.51
2022-08-05T07:52:21.070Z,21.49
2022-08-05T07:53:21.119Z,21.49
2022-08-05T07:54:21.208Z,21.48
2022-08-05T07:56:04.731Z,21.49
2022-08-05T07:57:02.421Z,21.52
2022-08-05T07:57:55.247Z,21.51
2022-08-05T07:58:57.374Z,21.55
2022-08-05T07:59:21.875Z,21.63
2022-08-05T08:00:21.673Z,21.68
2022-08-05T08:01:21.989Z,21.79
2022-08-05T08:02:21.831Z,21.85
2022-08-05T08:03:22.146Z,21.90
2022-08-05T08:04:34.376Z,21.94
2022-08-05T08:05:22.086Z,21.90
2022-08-05T08:06:22.138Z,21.85
2022-08-05T08:07:23.015Z,21.77
2022-08-05T08:08:22.309Z,21.79
2022-08-05T08:09:22.378Z,21.75
2022-08-05T08:10:22.426Z,21.71
2022-08-05T08:11:27.585Z,21.75
2022-08-05T08:12:33.476Z,21.74
2022-08-05T08:13:29.394Z,21.75
2022-08-05T08:14:22.817Z,21.71
2022-08-05T08:15:37.359Z,21.67
2022-08-05T08:16:54.425Z,21.59
2022-08-05T08:17:23.222Z,21.56
2022-08-05T08:18:23.074Z,21.53
2022-08-05T08:20:10.277Z,21.51
2022-08-05T08:21:02.872Z,21.49
2022-08-05T08:21:23.287Z,21.46
2022-08-05T08:22:23.338Z,21.48
2022-08-05T08:24:01.005Z,21.48
2022-08-05T08:24:23.504Z,21.48
2022-08-05T08:25:26.527Z,21.48
2022-08-05T08:26:26.840Z,21.52
2022-08-05T08:27:35.776Z,21.55
2022-08-05T08:28:35.758Z,21.61
2022-08-05T08:30:06.037Z,21.61
2022-08-05T08:30:32.521Z,21.58
2022-08-05T08:31:24.116Z,21.56
2022-08-05T08:32:27.793Z,21.52
2022-08-05T08:33:24.280Z,21.46
2022-08-05T08:34:30.237Z,21.42
2022-08-05T08:35:26.738Z,21.37
2022-08-05T08:36:37.490Z,21.30
2022-08-05T08:37:27.835Z,21.28
2022-08-05T08:38:35.544Z,21.30
2022-08-05T08:39:24.907Z,21.33
2022-08-05T08:40:24.797Z,21.31
2022-08-05T08:41:25.938Z,21.31
2022-08-05T08:42:34.305Z,21.28
2022-08-05T08:45:20.946Z,21.28
2022-08-05T08:45:30.778Z,21.30
2022-08-05T08:45:36.192Z,21.22
2022-08-05T08:46:36.279Z,21.21
2022-08-05T08:48:06.179Z,21.18
2022-08-05T08:49:02.987Z,21.16
2022-08-05T08:50:22.856Z,21.18
2022-08-05T08:51:21.920Z,21.18
2022-08-05T08:52:06.045Z,21.18
2022-08-05T08:52:36.751Z,21.16
2022-08-05T08:53:36.861Z,21.13
2022-08-05T08:54:36.901Z,21.11
2022-08-05T08:56:04.146Z,21.11
2022-08-05T08:56:37.072Z,21.09
2022-08-05T08:57:42.268Z,21.03
2022-08-05T08:58:44.685Z,20.98
2022-08-05T08:59:37.337Z,20.83
2022-08-05T09:00:37.464Z,20.82
2022-08-05T09:01:37.483Z,20.73
2022-08-05T09:02:37.564Z,20.72
2022-08-05T09:03:45.025Z,20.71
2022-08-05T09:04:58.497Z,20.71
2022-08-05T09:05:38.269Z,20.73
2022-08-05T09:06:37.893Z,20.73
2022-08-05T09:07:39.855Z,20.71
2022-08-05T09:08:40.172Z,20.79
2022-08-05T09:09:38.157Z,21.00
2022-08-05T09:10:38.181Z,21.27
2022-08-05T09:11:50.853Z,21.51
2022-08-05T09:12:38.355Z,21.75
2022-08-05T09:14:00.824Z,21.83
2022-08-05T09:14:56.575Z,21.91
2022-08-05T09:15:38.588Z,22.21
2022-08-05T09:16:38.637Z,22.46
2022-08-05T09:17:42.985Z,22.64
2022-08-05T09:18:42.790Z,22.82
2022-08-05T09:19:55.165Z,22.94
2022-08-05T09:20:38.933Z,22.74
2022-08-05T09:22:23.267Z,22.57
2022-08-05T09:22:39.509Z,22.46
2022-08-05T09:23:43.536Z,22.30
2022-08-05T09:24:39.226Z,22.14
2022-08-05T09:26:01.503Z,22.04
2022-08-05T09:26:39.366Z,22.01
2022-08-05T09:28:03.961Z,22.06
2022-08-05T09:28:39.694Z,22.02
2022-08-05T09:29:47.717Z,22.05
2022-08-05T09:30:39.641Z,22.01
2022-08-05T09:32:40.002Z,22.05
2022-08-05T09:32:47.613Z,22.06
2022-08-05T09:33:39.902Z,22.09
2022-08-05T09:34:39.951Z,22.05
2022-08-05T09:35:40.029Z,21.93
2022-08-05T09:36:54.014Z,21.81
2022-08-05T09:38:18.452Z,21.70
2022-08-05T09:38:40.294Z,21.55
2022-08-05T09:39:45.136Z,21.52
2022-08-05T09:40:40.406Z,21.49
2022-08-05T09:41:40.519Z,21.49
2022-08-05T09:42:40.566Z,21.46
2022-08-05T09:43:42.180Z,21.49
2022-08-05T09:44:40.748Z,21.52
2022-08-05T09:46:06.648Z,21.52
2022-08-05T09:46:51.650Z,21.52
2022-08-05T09:47:54.966Z,21.53
2022-08-05T09:48:41.160Z,21.45
2022-08-05T09:50:00.598Z,21.34
2022-08-05T09:50:44.469Z,21.31
2022-08-05T09:51:41.326Z,21.27
2022-08-05T09:52:45.127Z,21.16
2022-08-05T09:53:54.045Z,21.06
2022-08-05T09:54:41.592Z,20.98
2022-08-05T09:55:58.716Z,20.97
2022-08-05T09:56:41.763Z,20.93
2022-08-05T09:57:43.268Z,20.96
2022-08-05T09:58:42.407Z,20.91
2022-08-05T09:59:42.000Z,20.87
2022-08-05T10:00:42.065Z,20.83
2022-08-05T10:01:45.885Z,20.75
2022-08-05T10:02:42.254Z,20.64
2022-08-05T10:03:58.473Z,20.53
2022-08-05T10:04:42.386Z,20.50
2022-08-05T10:05:42.489Z,20.54
2022-08-05T10:06:49.797Z,20.48
2022-08-05T10:08:10.680Z,20.33
2022-08-05T10:08:42.763Z,20.23
2022-08-05T10:09:44.926Z,20.23
2022-08-05T10:10:42.893Z,20.22
2022-08-05T10:11:42.974Z,20.19
2022-08-05T10:12:50.015Z,20.26
2022-08-05T10:13:45.755Z,20.30
2022-08-05T10:14:43.196Z,20.31
2022-08-05T10:15:43.291Z,20.30
2022-08-05T10:16:53.100Z,20.31
2022-08-05T10:17:47.435Z,20.25
2022-08-05T10:18:43.537Z,20.26
2022-08-05T10:20:03.577Z,20.23
2022-08-05T10:20:44.162Z,20.17
2022-08-05T10:21:43.769Z,20.16
2022-08-05T10:22:50.824Z,20.12
2022-08-05T10:23:59.345Z,20.08
2022-08-05T10:24:44.012Z,20.08
2022-08-05T10:25:44.106Z,20.10
2022-08-05T10:26:51.169Z,20.12
2022-08-05T10:28:16.706Z,20.12
2022-08-05T10:28:44.935Z,20.13
2022-08-05T10:30:06.867Z,20.08
2022-08-05T10:32:53.842Z,19.98
2022-08-05T10:33:03.969Z,19.92
2022-08-05T10:33:14.485Z,19.83
2022-08-05T10:34:09.395Z,19.72
2022-08-05T10:35:09.384Z,19.70
2022-08-05T10:36:09.455Z,19.68
2022-08-05T10:37:09.505Z,19.72
2022-08-05T10:38:11.895Z,19.76
2022-08-05T10:39:11.812Z,19.79
2022-08-05T10:40:18.094Z,19.82
2022-08-05T10:41:09.851Z,19.79
2022-08-05T10:42:11.314Z,19.75
2022-08-05T10:43:12.411Z,19.72
2022-08-05T10:44:10.201Z,19.68
2022-08-05T10:45:23.445Z,19.65
2022-08-05T10:46:10.537Z,19.61
2022-08-05T10:47:10.318Z,19.61
2022-08-05T10:48:31.422Z,19.60
2022-08-05T10:49:16.461Z,19.58
2022-08-05T10:50:31.980Z,19.57
2022-08-05T10:51:21.397Z,19.52
2022-08-05T10:52:10.741Z,19.49
2022-08-05T10:53:10.782Z,19.52
2022-08-05T10:54:28.570Z,19.55
2022-08-05T10:55:10.928Z,19.58
2022-08-05T10:56:21.272Z,19.61
2022-08-05T10:57:11.105Z,19.64
2022-08-05T10:58:11.627Z,19.65
2022-08-05T10:59:12.603Z,19.65
2022-08-05T11:00:12.154Z,19.67
2022-08-05T11:01:11.558Z,19.61
2022-08-05T11:02:14.412Z,19.57
2022-08-05T11:03:25.532Z,19.50
2022-08-05T11:04:11.695Z,19.47
2022-08-05T11:05:11.740Z,19.47
2022-08-05T11:06:15.430Z,19.47
2022-08-05T11:07:11.895Z,19.53
2022-08-05T11:08:33.656Z,19.57
2022-08-05T11:09:13.069Z,19.53
2022-08-05T11:10:12.109Z,19.57
2022-08-05T11:11:16.498Z,19.60
2022-08-05T11:12:12.262Z,19.61
2022-08-05T11:13:12.342Z,19.67
2022-08-05T11:14:12.422Z,19.60
2022-08-05T11:15:20.194Z,19.64
2022-08-05T11:16:12.560Z,19.62
2022-08-05T11:18:07.367Z,19.64
2022-08-05T11:18:14.508Z,19.60
2022-08-05T11:20:10.193Z,19.60
2022-08-05T11:20:18.328Z,19.62
2022-08-05T11:21:12.938Z,19.70
2022-08-05T11:22:13.026Z,19.78
2022-08-05T11:23:13.136Z,19.83
2022-08-05T11:24:29.831Z,19.86
2022-08-05T11:26:03.200Z,19.90
2022-08-05T11:26:13.384Z,19.98
2022-08-05T11:27:13.483Z,20.01
2022-08-05T11:28:17.299Z,20.05
2022-08-05T11:29:14.453Z,20.08
2022-08-05T11:30:13.717Z,20.10
2022-08-05T11:31:51.825Z,20.13
2022-08-05T11:32:13.852Z,20.23
2022-08-05T11:33:13.926Z,20.38
2022-08-05T11:34:15.077Z,20.51
2022-08-05T11:35:15.515Z,20.60
2022-08-05T11:36:14.152Z,20.56
2022-08-05T11:38:30.350Z,20.60
2022-08-05T11:38:45.949Z,20.66
2022-08-05T11:39:14.479Z,20.69
2022-08-05T11:40:14.466Z,20.69
2022-08-05T11:41:56.199Z,20.66
2022-08-05T11:42:18.425Z,20.69
2022-08-05T11:43:14.691Z,20.72
2022-08-05T11:44:40.390Z,20.76
2022-08-05T11:45:26.862Z,20.76
2022-08-05T11:46:32.252Z,20.85
2022-08-05T11:47:18.642Z,20.97
2022-08-05T11:48:15.099Z,21.03
2022-08-05T11:49:15.181Z,21.11
2022-08-05T11:50:15.242Z,21.19
2022-08-05T11:51:44.186Z,21.22
2022-08-05T11:52:15.375Z,21.31
2022-08-05T11:53:15.548Z,21.34
2022-08-05T11:54:15.590Z,21.33
2022-08-05T11:55:15.638Z,21.26
2022-08-05T11:56:15.689Z,21.22
2022-08-05T11:57:25.089Z,21.26
2022-08-05T11:58:17.455Z,21.31
2022-08-05T11:59:15.958Z,21.38
2022-08-05T12:00:16.023Z,21.46
2022-08-05T12:01:19.179Z,21.51
2022-08-05T12:02:29.781Z,21.68
2022-08-05T12:03:16.385Z,21.85
2022-08-05T12:04:16.502Z,22.05
2022-08-05T12:05:18.044Z,22.26
2022-08-05T12:06:16.550Z,22.36
2022-08-05T12:07:16.712Z,22.39
2022-08-05T12:08:17.908Z,22.35
2022-08-05T12:09:19.956Z,22.33
2022-08-05T12:10:16.825Z,22.26
2022-08-05T12:11:17.242Z,22.23
2022-08-05T12:12:16.983Z,22.15
2022-08-05T12:13:27.746Z,22.11
2022-08-05T12:14:17.247Z,22.04
2022-08-05T12:15:17.218Z,21.89
2022-08-05T12:16:17.289Z,21.79
2022-08-05T12:18:02.498Z,21.73
2022-08-05T12:18:17.595Z,21.66
2022-08-05T12:20:27.311Z,21.59
2022-08-05T12:20:38.094Z,21.66
2022-08-05T12:21:17.771Z,21.75
2022-08-05T12:22:19.907Z,21.89
2022-08-05T12:23:17.843Z,22.02
2022-08-05T12:24:17.916Z,22.19
2022-08-05T12:25:17.988Z,22.38
2022-08-05T12:26:18.084Z,22.52
2022-08-05T12:27:32.566Z,22.74
2022-08-05T12:28:18.231Z,22.91
2022-08-05T12:29:22.859Z,22.93
2022-08-05T12:30:18.364Z,22.86
2022-08-05T12:31:28.066Z,22.78
2022-08-05T12:32:18.512Z,22.89
2022-08-05T12:33:27.705Z,23.06
2022-08-05T12:34:20.685Z,23.25
2022-08-05T12:35:21.659Z,23.37
2022-08-05T12:36:18.825Z,23.45
2022-08-05T12:37:21.750Z,23.42
2022-08-05T12:38:18.941Z,23.35
2022-08-05T12:39:19.210Z,23.37
2022-08-05T12:40:26.539Z,23.31
2022-08-05T12:41:19.215Z,23.19
2022-08-05T12:42:19.298Z,23.11
2022-08-05T12:43:20.654Z,23.18
2022-08-05T12:44:28.620Z,23.35
2022-08-05T12:45:19.529Z,23.53
2022-08-05T12:46:23.594Z,23.69
2022-08-05T12:47:19.703Z,23.77
2022-08-05T12:48:32.580Z,23.78
2022-08-05T12:49:19.872Z,23.90
2022-08-05T12:50:20.004Z,24.04
2022-08-05T12:52:10.028Z,24.15
2022-08-05T12:52:25.242Z,24.16
2022-08-05T12:53:20.180Z,24.12
2022-08-05T12:54:23.369Z,24.05
2022-08-05T12:55:23.005Z,23.99
2022-08-05T12:56:35.419Z,23.93